Time;durP1;ratioP1;P1;durP2;ratioP2;P2;SDS_P1;SDS_P2;PMS_P1;PMS_P2;Temp;Humidity;BMP_temperature;BMP_pressure;BME280_temperature;BME280_humidity;BME280_pressure;Samples;Min_cycle;Max_cycle;Signal;HPM_P1;HPM_P2
2021/04/10 00:00:45;;;;;;;9.67;3.50;;;;;;;;;;4983356;28;39096;-78
2021/04/10 00:03:12;;;;;;;8.20;4.00;;;;;;;;;;5001801;28;35372;-78
2021/04/10 00:05:38;;;;;;;13.33;3.90;;;;;;;;;;4989008;28;38751;-78
2021/04/10 00:08:05;;;;;;;11.83;3.40;;;;;;;;;;4987758;28;38435;-78
2021/04/10 00:10:31;;;;;;;17.63;3.87;;;;;;;;;;4996809;28;38982;-78
2021/04/10 00:12:58;;;;;;;12.30;4.10;;;;;;;;;;5004714;28;37646;-78
2021/04/10 00:15:26;;;;;;;8.90;3.50;;;;;;;;;;5005052;28;40591;-78
2021/04/10 00:17:52;;;;;;;13.20;4.00;;;;;;;;;;4988188;28;39614;-78
2021/04/10 00:20:20;;;;;;;12.80;4.03;;;;;;;;;;5004112;28;38420;-78
2021/04/10 00:22:46;;;;;;;9.20;3.57;;;;;;;;;;4988049;28;37125;-78
2021/04/10 00:25:13;;;;;;;9.20;4.00;;;;;;;;;;5005909;28;40139;-78
2021/04/10 00:27:40;;;;;;;15.67;3.90;;;;;;;;;;4995839;28;39378;-77
2021/04/10 00:30:08;;;;;;;15.20;3.60;;;;;;;;;;5002024;28;39561;-78
2021/04/10 00:32:34;;;;;;;10.63;3.43;;;;;;;;;;5003392;28;37535;-78
2021/04/10 00:35:00;;;;;;;7.17;3.40;;;;;;;;;;4987116;28;38763;-78
2021/04/10 00:37:27;;;;;;;13.17;3.93;;;;;;;;;;5007531;28;47499;-78
2021/04/10 00:39:53;;;;;;;10.10;4.00;;;;;;;;;;5009142;28;38238;-77
2021/04/10 00:42:19;;;;;;;8.50;3.70;;;;;;;;;;5008544;28;37843;-78
2021/04/10 00:44:46;;;;;;;12.47;5.20;;;;;;;;;;4987766;28;40025;-78
2021/04/10 00:47:12;;;;;;;8.93;3.87;;;;;;;;;;4987480;28;39415;-77
2021/04/10 00:49:38;;;;;;;15.17;3.80;;;;;;;;;;4989044;28;39317;-78
2021/04/10 00:52:06;;;;;;;11.20;3.30;;;;;;;;;;4986811;28;37605;-78
2021/04/10 00:54:33;;;;;;;14.07;3.83;;;;;;;;;;5004043;28;39614;-78
2021/04/10 00:56:59;;;;;;;15.03;3.80;;;;;;;;;;4988239;28;38080;-78
2021/04/10 00:59:26;;;;;;;13.83;4.20;;;;;;;;;;5003281;28;38685;-78
2021/04/10 01:01:52;;;;;;;11.23;3.90;;;;;;;;;;5002481;28;36842;-78
2021/04/10 01:04:19;;;;;;;15.40;4.90;;;;;;;;;;5001854;28;40194;-78
2021/04/10 01:06:45;;;;;;;14.80;4.43;;;;;;;;;;4987920;28;38809;-79
2021/04/10 01:09:11;;;;;;;17.20;4.43;;;;;;;;;;4989213;28;38330;-78
2021/04/10 01:11:56;;;;;;;9.17;4.07;;;;;;;;;;5004183;28;37501;-79
2021/04/10 01:14:40;;;;;;;15.37;4.70;;;;;;;;;;4988889;28;38994;-78
2021/04/10 01:17:17;;;;;;;9.33;4.87;;;;;;;;;;5002594;28;40111;-78
2021/04/10 01:20:02;;;;;;;18.50;5.17;;;;;;;;;;5005239;28;39562;-77
2021/04/10 01:22:47;;;;;;;11.70;4.37;;;;;;;;;;4986226;28;48603;-78
2021/04/10 01:25:37;;;;;;;10.07;4.60;;;;;;;;;;4988818;28;38058;-78
2021/04/10 01:28:08;;;;;;;16.33;5.00;;;;;;;;;;5001373;28;40531;-77
2021/04/10 01:30:35;;;;;;;16.93;4.90;;;;;;;;;;4988180;28;38370;-78
2021/04/10 01:33:01;;;;;;;10.67;4.20;;;;;;;;;;4986507;28;36797;-78
2021/04/10 01:35:33;;;;;;;13.50;4.50;;;;;;;;;;4991595;28;48670;-78
2021/04/10 01:38:00;;;;;;;11.57;4.60;;;;;;;;;;5007226;28;38166;-78
2021/04/10 01:40:32;;;;;;;14.17;4.17;;;;;;;;;;5023399;28;46533;-78
2021/04/10 01:43:00;;;;;;;17.42;5.10;;;;;;;;;;5008943;28;37104;-78
2021/04/10 01:45:27;;;;;;;17.47;5.63;;;;;;;;;;4988077;28;40037;-78
2021/04/10 01:47:56;;;;;;;14.17;4.73;;;;;;;;;;5003239;28;40042;-78
2021/04/10 01:50:23;;;;;;;11.30;4.43;;;;;;;;;;4986942;28;38171;-78
2021/04/10 01:52:49;;;;;;;14.93;4.63;;;;;;;;;;5001649;28;37161;-78
2021/04/10 01:55:17;;;;;;;11.23;4.63;;;;;;;;;;4987497;28;39019;-78
2021/04/10 01:57:44;;;;;;;14.03;4.80;;;;;;;;;;4987010;28;38736;-77
2021/04/10 02:00:11;;;;;;;17.93;4.43;;;;;;;;;;5002115;28;40149;-78
2021/04/10 02:02:39;;;;;;;15.20;4.33;;;;;;;;;;4986569;28;36899;-78
2021/04/10 02:05:06;;;;;;;15.70;5.10;;;;;;;;;;4986375;28;38594;-78
2021/04/10 02:07:33;;;;;;;13.67;4.13;;;;;;;;;;4996374;28;38417;-77
2021/04/10 02:10:02;;;;;;;12.70;3.87;;;;;;;;;;4999397;28;38902;-77
2021/04/10 02:12:28;;;;;;;15.93;4.30;;;;;;;;;;4986756;28;47097;-79
2021/04/10 02:14:58;;;;;;;15.43;5.13;;;;;;;;;;4987932;28;39131;-78
2021/04/10 02:17:24;;;;;;;11.63;4.07;;;;;;;;;;4987422;28;39603;-78
2021/04/10 02:19:51;;;;;;;10.60;4.33;;;;;;;;;;4998672;28;39549;-78
2021/04/10 02:22:17;;;;;;;18.57;4.27;;;;;;;;;;5001984;28;37368;-76
2021/04/10 02:24:44;;;;;;;16.17;4.67;;;;;;;;;;4986676;28;38726;-75
2021/04/10 02:27:11;;;;;;;15.13;3.93;;;;;;;;;;4987489;28;38140;-76
2021/04/10 02:29:37;;;;;;;15.27;4.80;;;;;;;;;;5002642;28;39376;-76
2021/04/10 02:32:06;;;;;;;12.40;3.63;;;;;;;;;;4985538;28;36903;-76
2021/04/10 02:34:34;;;;;;;9.20;3.53;;;;;;;;;;4995703;28;40460;-78
2021/04/10 02:37:02;;;;;;;11.03;3.87;;;;;;;;;;4981996;28;40262;-76
2021/04/10 02:39:29;;;;;;;15.63;3.53;;;;;;;;;;4967355;28;48681;-76
2021/04/10 02:41:57;;;;;;;16.87;3.73;;;;;;;;;;4997967;28;38286;-76
2021/04/10 02:44:25;;;;;;;12.53;4.33;;;;;;;;;;5001575;28;39575;-76
2021/04/10 02:46:52;;;;;;;9.10;3.07;;;;;;;;;;5001595;28;37789;-76
2021/04/10 02:49:24;;;;;;;9.87;3.27;;;;;;;;;;4987234;28;38835;-76
2021/04/10 02:51:54;;;;;;;13.52;3.47;;;;;;;;;;5001599;28;36847;-76
2021/04/10 02:54:21;;;;;;;15.97;3.83;;;;;;;;;;5000976;28;39434;-76
2021/04/10 02:57:08;;;;;;;16.40;3.40;;;;;;;;;;5001852;28;38863;-76
2021/04/10 02:59:35;;;;;;;11.70;3.03;;;;;;;;;;5000796;28;46361;-76
2021/04/10 03:02:02;;;;;;;11.83;3.57;;;;;;;;;;4986609;28;37852;-76
2021/04/10 03:04:29;;;;;;;21.03;3.90;;;;;;;;;;4987807;28;39717;-76
2021/04/10 03:06:56;;;;;;;17.73;3.30;;;;;;;;;;4986977;28;40170;-76
2021/04/10 03:09:22;;;;;;;17.10;3.00;;;;;;;;;;4988767;28;38929;-76
2021/04/10 03:11:49;;;;;;;17.33;3.40;;;;;;;;;;5000057;28;37374;-76
2021/04/10 03:14:17;;;;;;;18.23;3.50;;;;;;;;;;5003773;28;38221;-77
2021/04/10 03:16:44;;;;;;;13.93;3.23;;;;;;;;;;5006793;28;39533;-76
2021/04/10 03:19:10;;;;;;;15.53;3.80;;;;;;;;;;4990102;28;38170;-76
2021/04/10 03:21:39;;;;;;;16.53;3.80;;;;;;;;;;4989465;28;36685;-76
2021/04/10 03:24:06;;;;;;;18.00;3.93;;;;;;;;;;5000970;28;39169;-76
2021/04/10 03:26:32;;;;;;;12.13;3.53;;;;;;;;;;5010725;28;38630;-76
2021/04/10 03:28:59;;;;;;;11.63;3.17;;;;;;;;;;5009936;28;37919;-76
2021/04/10 03:31:26;;;;;;;11.87;3.40;;;;;;;;;;4998587;28;36954;-76
2021/04/10 03:33:52;;;;;;;16.17;3.77;;;;;;;;;;4999939;28;40173;-77
2021/04/10 03:36:19;;;;;;;17.57;4.07;;;;;;;;;;5006953;28;39882;-76
2021/04/10 03:38:46;;;;;;;16.47;3.20;;;;;;;;;;5009789;28;38938;-76
2021/04/10 03:41:12;;;;;;;14.37;2.70;;;;;;;;;;5010256;28;37285;-76
2021/04/10 03:43:39;;;;;;;12.20;2.80;;;;;;;;;;4988633;28;40885;-76
2021/04/10 03:46:05;;;;;;;10.20;2.77;;;;;;;;;;5004738;28;38449;-76
2021/04/10 03:48:32;;;;;;;12.60;3.63;;;;;;;;;;5005237;28;38294;-76
2021/04/10 03:50:59;;;;;;;10.30;3.87;;;;;;;;;;5005486;28;37156;-76
2021/04/10 03:53:25;;;;;;;12.67;3.50;;;;;;;;;;5004546;28;40657;-76
2021/04/10 03:55:52;;;;;;;15.43;3.30;;;;;;;;;;4989806;28;38338;-78
2021/04/10 03:58:18;;;;;;;19.67;3.60;;;;;;;;;;4991067;28;38946;-76
2021/04/10 04:00:45;;;;;;;11.90;3.80;;;;;;;;;;5005650;28;36711;-77
2021/04/10 04:03:11;;;;;;;15.23;3.50;;;;;;;;;;5002285;28;39159;-76
2021/04/10 04:05:37;;;;;;;12.00;3.13;;;;;;;;;;4990940;28;39489;-75
2021/04/10 04:08:04;;;;;;;17.17;3.90;;;;;;;;;;5004176;28;39352;-76
2021/04/10 04:10:30;;;;;;;11.93;3.53;;;;;;;;;;4989072;28;37033;-76
2021/04/10 04:12:57;;;;;;;16.17;3.87;;;;;;;;;;5002594;28;38872;-76
2021/04/10 04:15:23;;;;;;;16.73;3.97;;;;;;;;;;4990428;28;39626;-76
2021/04/10 04:17:49;;;;;;;10.47;3.50;;;;;;;;;;4988913;28;39398;-76
2021/04/10 04:20:16;;;;;;;16.03;3.23;;;;;;;;;;4987915;28;38362;-76
2021/04/10 04:22:42;;;;;;;14.17;3.43;;;;;;;;;;4998445;28;39166;-76
2021/04/10 04:25:09;;;;;;;10.13;3.27;;;;;;;;;;5004797;28;38831;-76
2021/04/10 04:27:36;;;;;;;9.87;2.90;;;;;;;;;;5006339;28;39017;-76
2021/04/10 04:30:04;;;;;;;12.37;2.90;;;;;;;;;;5003533;28;36518;-76
2021/04/10 04:32:30;;;;;;;8.73;2.70;;;;;;;;;;4990853;28;38828;-76
2021/04/10 04:34:57;;;;;;;12.27;2.60;;;;;;;;;;5005455;28;39800;-76
2021/04/10 04:37:23;;;;;;;7.43;2.97;;;;;;;;;;5023829;28;39308;-76
2021/04/10 04:39:49;;;;;;;10.07;2.50;;;;;;;;;;5006930;28;37164;-76
2021/04/10 04:42:16;;;;;;;10.63;3.43;;;;;;;;;;4989349;28;39974;-76
2021/04/10 04:44:43;;;;;;;13.57;2.47;;;;;;;;;;5001519;28;39097;-76
2021/04/10 04:47:09;;;;;;;11.00;2.00;;;;;;;;;;4989092;28;39271;-77
2021/04/10 04:49:35;;;;;;;8.40;2.57;;;;;;;;;;4989531;28;36923;-76
2021/04/10 04:52:02;;;;;;;14.20;2.50;;;;;;;;;;5001812;28;39726;-76
2021/04/10 04:54:28;;;;;;;9.20;2.40;;;;;;;;;;4989311;28;37944;-76
2021/04/10 04:56:55;;;;;;;13.00;2.50;;;;;;;;;;4988939;28;37630;-76
2021/04/10 04:59:21;;;;;;;9.83;2.20;;;;;;;;;;5000570;28;38064;-76
2021/04/10 05:01:47;;;;;;;9.90;2.13;;;;;;;;;;4987454;28;38956;-76
2021/04/10 05:04:14;;;;;;;6.83;2.03;;;;;;;;;;4987232;28;38522;-76
2021/04/10 05:06:40;;;;;;;15.47;2.60;;;;;;;;;;4988294;28;38456;-76
2021/04/10 05:09:07;;;;;;;6.57;2.67;;;;;;;;;;5004037;28;35838;-76
2021/04/10 05:11:34;;;;;;;12.30;1.83;;;;;;;;;;5004652;28;39859;-76
2021/04/10 05:14:00;;;;;;;9.03;2.23;;;;;;;;;;4988653;28;39357;-76
2021/04/10 05:16:27;;;;;;;7.87;1.67;;;;;;;;;;5003267;28;39183;-76
2021/04/10 05:18:53;;;;;;;7.33;1.87;;;;;;;;;;5005393;28;38534;-76
2021/04/10 05:21:19;;;;;;;8.73;1.50;;;;;;;;;;5003600;28;41049;-76
2021/04/10 05:23:46;;;;;;;5.83;1.70;;;;;;;;;;4997255;28;39435;-76
2021/04/10 05:26:12;;;;;;;8.37;1.60;;;;;;;;;;4997234;28;37987;-76
2021/04/10 05:28:38;;;;;;;4.07;1.57;;;;;;;;;;4987349;28;36760;-76
2021/04/10 05:31:05;;;;;;;10.97;1.70;;;;;;;;;;5003441;28;37694;-76
2021/04/10 05:33:32;;;;;;;8.77;1.73;;;;;;;;;;5004762;28;38611;-76
2021/04/10 05:35:59;;;;;;;6.23;1.73;;;;;;;;;;4986827;28;36572;-76
2021/04/10 05:38:26;;;;;;;10.60;2.47;;;;;;;;;;4992704;28;38502;-76
2021/04/10 05:40:52;;;;;;;10.13;1.87;;;;;;;;;;4988385;28;40523;-76
2021/04/10 05:43:19;;;;;;;6.53;1.80;;;;;;;;;;4988060;28;39438;-76
2021/04/10 05:45:45;;;;;;;10.40;2.97;;;;;;;;;;4988629;28;38049;-76
2021/04/10 05:48:12;;;;;;;12.27;2.27;;;;;;;;;;4985533;28;36623;-76
2021/04/10 05:50:38;;;;;;;10.10;2.70;;;;;;;;;;4997377;28;39472;-77
2021/04/10 05:53:04;;;;;;;13.57;2.37;;;;;;;;;;5001611;28;39004;-76
2021/04/10 05:55:31;;;;;;;6.57;1.87;;;;;;;;;;4988868;28;39514;-77
2021/04/10 05:57:57;;;;;;;12.30;2.10;;;;;;;;;;4987846;28;36824;-76
2021/04/10 06:00:24;;;;;;;9.37;2.27;;;;;;;;;;4988384;28;38911;-77
2021/04/10 06:02:54;;;;;;;5.57;2.00;;;;;;;;;;4988057;28;39683;-76
2021/04/10 06:05:21;;;;;;;9.50;2.20;;;;;;;;;;4988540;28;37910;-76
2021/04/10 06:07:48;;;;;;;11.13;2.63;;;;;;;;;;5004526;28;36193;-76
2021/04/10 06:10:17;;;;;;;8.63;2.30;;;;;;;;;;5004992;28;38696;-76
2021/04/10 06:12:43;;;;;;;10.07;2.00;;;;;;;;;;5004792;28;37264;-76
2021/04/10 06:15:11;;;;;;;8.97;1.70;;;;;;;;;;4988244;28;38164;-76
2021/04/10 06:17:38;;;;;;;9.63;2.13;;;;;;;;;;4989119;28;36613;-76
2021/04/10 06:20:05;;;;;;;9.50;2.77;;;;;;;;;;5000410;28;40797;-76
2021/04/10 06:22:31;;;;;;;6.67;2.20;;;;;;;;;;4999049;28;39134;-76
2021/04/10 06:24:57;;;;;;;9.07;1.90;;;;;;;;;;5006267;28;36767;-76
2021/04/10 06:27:24;;;;;;;14.27;3.13;;;;;;;;;;4989891;28;36428;-76
2021/04/10 06:29:50;;;;;;;8.50;1.73;;;;;;;;;;4989675;28;38903;-77
2021/04/10 06:32:16;;;;;;;7.93;2.17;;;;;;;;;;4987735;28;38870;-76
2021/04/10 06:34:43;;;;;;;4.53;2.03;;;;;;;;;;4988693;28;38338;-76
2021/04/10 06:37:09;;;;;;;9.03;2.20;;;;;;;;;;4985881;28;38560;-78
2021/04/10 06:39:35;;;;;;;8.63;2.17;;;;;;;;;;4989319;28;40092;-76
2021/04/10 06:42:04;;;;;;;12.17;1.97;;;;;;;;;;4985892;28;39093;-76
2021/04/10 06:44:30;;;;;;;8.27;1.60;;;;;;;;;;4988334;28;38222;-76
2021/04/10 06:46:57;;;;;;;7.63;1.93;;;;;;;;;;5004462;28;35339;-76
2021/04/10 06:49:25;;;;;;;4.80;1.73;;;;;;;;;;5004106;28;40045;-76
2021/04/10 06:51:52;;;;;;;7.60;1.90;;;;;;;;;;5003418;28;39327;-76
2021/04/10 06:54:20;;;;;;;9.23;1.70;;;;;;;;;;4988840;28;37863;-77
2021/04/10 06:56:57;;;;;;;6.70;2.03;;;;;;;;;;4988556;28;37266;-77
2021/04/10 06:59:37;;;;;;;6.40;2.00;;;;;;;;;;4986405;28;39110;-77
2021/04/10 07:02:06;;;;;;;6.87;2.27;;;;;;;;;;5014927;28;40025;-77
2021/04/10 07:04:32;;;;;;;9.27;2.63;;;;;;;;;;5007328;28;38142;-76
2021/04/10 07:06:59;;;;;;;10.03;2.20;;;;;;;;;;4986356;28;37864;-77
2021/04/10 07:09:27;;;;;;;4.03;2.03;;;;;;;;;;4986548;28;38845;-77
2021/04/10 07:11:55;;;;;;;7.43;2.63;;;;;;;;;;5002643;28;38952;-76
2021/04/10 07:14:21;;;;;;;7.87;2.13;;;;;;;;;;4999378;28;39201;-77
2021/04/10 07:16:48;;;;;;;10.43;2.60;;;;;;;;;;5001002;28;38487;-77
2021/04/10 07:19:15;;;;;;;14.67;2.53;;;;;;;;;;4986247;28;39485;-77
2021/04/10 07:21:41;;;;;;;10.10;2.97;;;;;;;;;;5000528;28;39237;-76
2021/04/10 07:24:08;;;;;;;9.10;3.07;;;;;;;;;;4989833;28;38877;-77
2021/04/10 07:26:55;;;;;;;10.33;2.60;;;;;;;;;;4994339;28;36569;-77
2021/04/10 07:29:30;;;;;;;12.57;3.33;;;;;;;;;;4985037;28;39393;-77
2021/04/10 07:31:57;;;;;;;10.37;3.03;;;;;;;;;;4986788;28;38758;-77
2021/04/10 07:34:23;;;;;;;11.60;3.53;;;;;;;;;;5001340;28;38618;-77
2021/04/10 07:37:02;;;;;;;10.87;3.03;;;;;;;;;;4987222;28;37143;-77
2021/04/10 07:39:29;;;;;;;8.83;2.83;;;;;;;;;;4985042;28;48669;-76
2021/04/10 07:42:03;;;;;;;13.90;3.70;;;;;;;;;;4996494;28;39081;-77
2021/04/10 07:44:35;;;;;;;13.60;2.87;;;;;;;;;;4986368;28;49171;-77
2021/04/10 07:47:02;;;;;;;;;;;;;;;;;;5000309;28;37569;-76
2021/04/10 07:49:29;;;;;;;8.63;2.93;;;;;;;;;;4986475;28;40334;-77
2021/04/10 07:51:56;;;;;;;9.90;2.93;;;;;;;;;;4998172;28;39346;-77
2021/04/10 07:54:26;;;;;;;7.77;3.63;;;;;;;;;;4987138;28;37307;-77
2021/04/10 07:56:57;;;;;;;14.50;4.00;;;;;;;;;;5004606;28;37084;-77
2021/04/10 07:59:23;;;;;;;14.33;3.87;;;;;;;;;;5004522;28;39877;-77
2021/04/10 08:01:50;;;;;;;15.07;3.30;;;;;;;;;;4988283;28;40124;-77
2021/04/10 08:04:17;;;;;;;9.83;2.70;;;;;;;;;;5003635;28;39048;-76
2021/04/10 08:06:59;;;;;;;9.90;3.07;;;;;;;;;;5003983;28;38737;-77
2021/04/10 08:09:29;;;;;;;11.60;2.80;;;;;;;;;;4988079;28;39203;-77
2021/04/10 08:11:55;;;;;;;10.03;2.53;;;;;;;;;;4989368;28;38264;-76
2021/04/10 08:14:22;;;;;;;10.77;2.80;;;;;;;;;;5003336;28;36857;-78
2021/04/10 08:16:54;;;;;;;11.97;2.87;;;;;;;;;;4987092;28;38512;-78
2021/04/10 08:19:31;;;;;;;9.55;3.25;;;;;;;;;;4988400;28;38786;-78
2021/04/10 08:21:58;;;;;;;9.13;2.83;;;;;;;;;;5003354;28;39535;-77
2021/04/10 08:24:26;;;;;;;12.77;3.90;;;;;;;;;;4987770;28;37965;-76
2021/04/10 08:26:54;;;;;;;11.67;3.13;;;;;;;;;;5004587;28;35729;-78
2021/04/10 08:29:21;;;;;;;13.27;4.10;;;;;;;;;;5005037;28;39703;-79
2021/04/10 08:31:48;;;;;;;8.60;2.63;;;;;;;;;;5003313;28;39271;-78
2021/04/10 08:34:14;;;;;;;9.57;3.00;;;;;;;;;;5002474;28;39587;-78
2021/04/10 08:36:42;;;;;;;6.30;2.40;;;;;;;;;;4989107;28;37029;-78
2021/04/10 08:39:12;;;;;;;10.20;3.03;;;;;;;;;;4987930;28;38402;-79
2021/04/10 08:41:40;;;;;;;11.00;2.67;;;;;;;;;;4989111;28;39711;-78
2021/04/10 08:44:07;;;;;;;10.37;2.97;;;;;;;;;;5004127;28;37228;-78
2021/04/10 08:46:34;;;;;;;7.47;2.90;;;;;;;;;;5005261;28;37399;-76
2021/04/10 08:49:00;;;;;;;9.17;3.00;;;;;;;;;;5004386;28;39507;-78
2021/04/10 08:51:29;;;;;;;11.20;2.80;;;;;;;;;;4995316;28;39082;-77
2021/04/10 08:53:57;;;;;;;8.23;2.73;;;;;;;;;;5002464;28;38461;-78
2021/04/10 08:56:25;;;;;;;7.80;2.43;;;;;;;;;;4979076;28;37667;-76
2021/04/10 08:58:52;;;;;;;10.93;2.90;;;;;;;;;;5000077;28;37534;-77
2021/04/10 09:01:30;;;;;;;13.70;3.57;;;;;;;;;;5003064;28;37670;-76
2021/04/10 09:03:56;;;;;;;10.37;3.03;;;;;;;;;;4987749;28;39048;-76
2021/04/10 09:06:22;;;;;;;11.03;3.30;;;;;;;;;;4986978;28;36803;-76
2021/04/10 09:08:49;;;;;;;9.03;2.40;;;;;;;;;;5003751;28;40461;-76
2021/04/10 09:11:22;;;;;;;9.83;2.53;;;;;;;;;;5002703;28;37806;-76
2021/04/10 09:13:49;;;;;;;11.47;3.13;;;;;;;;;;5003125;28;36970;-77
2021/04/10 09:16:32;;;;;;;12.60;3.03;;;;;;;;;;5001366;28;37861;-77
2021/04/10 09:19:05;;;;;;;7.20;2.53;;;;;;;;;;4985348;28;37665;-77
2021/04/10 09:21:40;;;;;;;11.18;2.50;;;;;;;;;;4986985;28;48849;-77
2021/04/10 09:24:27;;;;;;;11.10;2.67;;;;;;;;;;4984301;28;38369;-76
2021/04/10 09:27:02;;;;;;;8.73;2.97;;;;;;;;;;4980827;28;36861;-79
2021/04/10 09:29:42;;;;;;;10.27;2.87;;;;;;;;;;4987821;28;49576;-79
2021/04/10 09:32:08;;;;;;;8.23;2.67;;;;;;;;;;4986376;28;37411;-76
2021/04/10 09:34:45;;;;;;;8.50;2.57;;;;;;;;;;5003284;28;38700;-76
2021/04/10 09:37:12;;;;;;;14.43;2.67;;;;;;;;;;4990882;28;38150;-76
2021/04/10 09:39:56;;;;;;;7.67;2.50;;;;;;;;;;4988323;28;39131;-77
2021/04/10 09:45:11;;;;;;;9.73;2.50;;;;;;;;;;4987774;28;38881;-76
2021/04/10 09:47:56;;;;;;;4.80;2.23;;;;;;;;;;4987605;28;37056;-77
2021/04/10 09:50:22;;;;;;;7.17;2.90;;;;;;;;;;4984290;28;40012;-76
2021/04/10 09:53:15;;;;;;;5.23;2.37;;;;;;;;;;4988043;28;38130;-77
2021/04/10 09:55:43;;;;;;;10.60;2.60;;;;;;;;;;5004923;28;49123;-77
2021/04/10 09:58:12;;;;;;;9.25;2.90;;;;;;;;;;4992563;28;36973;-76
2021/04/10 10:00:39;;;;;;;10.38;2.80;;;;;;;;;;4987592;28;38634;-77
2021/04/10 10:03:07;;;;;;;9.93;2.67;;;;;;;;;;5002175;28;38993;-76
2021/04/10 10:05:35;;;;;;;9.57;3.20;;;;;;;;;;4988756;28;40099;-76
2021/04/10 10:08:05;;;;;;;10.97;3.30;;;;;;;;;;4999333;28;37350;-77
2021/04/10 10:10:32;;;;;;;16.37;3.43;;;;;;;;;;5003164;28;47772;-76
2021/04/10 10:13:03;;;;;;;13.50;3.40;;;;;;;;;;5002639;28;38699;-76
2021/04/10 10:15:30;;;;;;;13.43;3.33;;;;;;;;;;5000978;28;47143;-76
2021/04/10 10:17:56;;;;;;;11.20;3.42;;;;;;;;;;4988015;28;37126;-76
2021/04/10 10:20:22;;;;;;;6.47;2.88;;;;;;;;;;4987808;28;38835;-76
2021/04/10 10:22:49;;;;;;;6.25;2.53;;;;;;;;;;4983881;28;38252;-77
2021/04/10 10:25:17;;;;;;;11.70;3.75;;;;;;;;;;4986728;28;38987;-77
2021/04/10 10:27:47;;;;;;;9.10;3.00;;;;;;;;;;5003063;28;38424;-76
2021/04/10 10:30:18;;;;;;;11.23;3.72;;;;;;;;;;4997837;28;39769;-77
2021/04/10 10:32:45;;;;;;;12.40;3.47;;;;;;;;;;4999190;28;38651;-76
2021/04/10 10:35:12;;;;;;;8.10;2.90;;;;;;;;;;4982633;28;38332;-76
2021/04/10 10:37:39;;;;;;;13.47;3.40;;;;;;;;;;5000542;28;38300;-77
2021/04/10 10:40:07;;;;;;;8.33;3.13;;;;;;;;;;4986488;28;39066;-76
2021/04/10 10:42:33;;;;;;;10.10;3.10;;;;;;;;;;4987017;28;37763;-76
2021/04/10 10:44:59;;;;;;;8.80;2.90;;;;;;;;;;4986402;28;37645;-77
2021/04/10 10:47:26;;;;;;;5.40;2.83;;;;;;;;;;4985971;28;36962;-77
2021/04/10 10:49:53;;;;;;;7.43;3.00;;;;;;;;;;4987572;28;39914;-77
2021/04/10 10:52:19;;;;;;;7.60;2.83;;;;;;;;;;4984887;28;40116;-77
2021/04/10 10:54:50;;;;;;;11.63;3.37;;;;;;;;;;4988783;28;39345;-77
2021/04/10 10:57:17;;;;;;;8.60;2.90;;;;;;;;;;5002025;28;37505;-76
2021/04/10 10:59:44;;;;;;;7.60;2.75;;;;;;;;;;4988239;28;38700;-77
2021/04/10 11:02:11;;;;;;;13.00;3.30;;;;;;;;;;4986930;28;38323;-76
2021/04/10 11:04:39;;;;;;;9.05;3.72;;;;;;;;;;4987837;28;36717;-76
2021/04/10 11:07:06;;;;;;;10.98;3.10;;;;;;;;;;4986580;28;36878;-77
2021/04/10 11:09:37;;;;;;;9.80;3.40;;;;;;;;;;5002610;28;40426;-77
2021/04/10 11:12:05;;;;;;;9.87;3.50;;;;;;;;;;4985270;28;39855;-77
2021/04/10 11:14:33;;;;;;;12.20;3.40;;;;;;;;;;5001651;28;40077;-77
2021/04/10 11:17:00;;;;;;;9.80;3.30;;;;;;;;;;4979153;28;38597;-79
2021/04/10 11:19:36;;;;;;;9.67;3.40;;;;;;;;;;4967138;28;39249;-76
2021/04/10 11:22:03;;;;;;;8.60;2.80;;;;;;;;;;4966666;28;39399;-77
2021/04/10 11:24:49;;;;;;;9.33;4.00;;;;;;;;;;4971737;28;39133;-76
2021/04/10 11:27:20;;;;;;;8.33;3.30;;;;;;;;;;5001042;28;37346;-76
2021/04/10 11:29:53;;;;;;;9.70;3.30;;;;;;;;;;4997751;28;39696;-77
2021/04/10 11:32:21;;;;;;;9.27;3.60;;;;;;;;;;4985924;28;38766;-77
2021/04/10 11:34:47;;;;;;;7.53;2.87;;;;;;;;;;5004711;28;39860;-77
2021/04/10 11:37:36;;;;;;;10.68;3.53;;;;;;;;;;5007023;28;38126;-77
2021/04/10 11:40:05;;;;;;;11.40;3.40;;;;;;;;;;5009536;28;38714;-77
2021/04/10 11:42:31;;;;;;;7.73;3.10;;;;;;;;;;5000760;28;48854;-77
2021/04/10 11:44:59;;;;;;;8.00;2.97;;;;;;;;;;4989372;28;38310;-77
2021/04/10 11:47:30;;;;;;;10.03;3.30;;;;;;;;;;4987992;28;35870;-77
2021/04/10 11:50:10;;;;;;;9.70;3.73;;;;;;;;;;4990273;28;38924;-77
2021/04/10 11:52:37;;;;;;;10.90;3.77;;;;;;;;;;5003594;28;47449;-77
2021/04/10 11:55:04;;;;;;;9.03;3.03;;;;;;;;;;5003783;28;38845;-77
2021/04/10 11:57:32;;;;;;;6.80;3.27;;;;;;;;;;4989604;28;49314;-77
2021/04/10 12:00:02;;;;;;;13.53;3.60;;;;;;;;;;4989400;28;39850;-77
2021/04/10 12:02:32;;;;;;;8.63;2.97;;;;;;;;;;4977393;28;47284;-77
2021/04/10 12:04:58;;;;;;;11.57;4.23;;;;;;;;;;5004462;28;39227;-77
2021/04/10 12:07:26;;;;;;;8.53;3.50;;;;;;;;;;4988593;28;36908;-77
2021/04/10 12:09:52;;;;;;;10.47;3.37;;;;;;;;;;4989766;28;38941;-77
2021/04/10 12:12:18;;;;;;;9.10;3.93;;;;;;;;;;4989328;28;38839;-77
2021/04/10 12:14:45;;;;;;;9.00;4.10;;;;;;;;;;4989089;28;39132;-77
2021/04/10 12:17:12;;;;;;;13.23;3.83;;;;;;;;;;4989728;28;36767;-77
2021/04/10 12:19:38;;;;;;;9.43;3.87;;;;;;;;;;4999064;28;37848;-77
2021/04/10 12:22:05;;;;;;;12.83;3.50;;;;;;;;;;4988059;28;38674;-77
2021/04/10 12:24:31;;;;;;;12.70;3.43;;;;;;;;;;4989255;28;39329;-77
2021/04/10 12:26:58;;;;;;;13.60;4.77;;;;;;;;;;4990299;28;36886;-77
2021/04/10 12:29:25;;;;;;;13.13;4.07;;;;;;;;;;4998627;28;37697;-77
2021/04/10 12:31:51;;;;;;;11.07;3.60;;;;;;;;;;5004147;28;39463;-77
2021/04/10 12:34:18;;;;;;;12.60;3.73;;;;;;;;;;4988156;28;40146;-77
2021/04/10 12:36:44;;;;;;;11.57;4.50;;;;;;;;;;5003383;28;37160;-77
2021/04/10 12:39:11;;;;;;;9.77;4.10;;;;;;;;;;4987019;28;39147;-77
2021/04/10 12:41:38;;;;;;;8.63;3.90;;;;;;;;;;5004246;28;39239;-78
2021/04/10 12:44:04;;;;;;;16.50;4.47;;;;;;;;;;4987758;28;38807;-77
2021/04/10 12:46:30;;;;;;;12.20;4.20;;;;;;;;;;4991084;28;38431;-77
2021/04/10 12:48:57;;;;;;;11.77;4.37;;;;;;;;;;5005310;28;40577;-77
2021/04/10 12:51:23;;;;;;;11.70;4.43;;;;;;;;;;4988502;28;39723;-77
2021/04/10 12:53:49;;;;;;;16.70;4.53;;;;;;;;;;5003619;28;39008;-77
2021/04/10 12:56:20;;;;;;;12.77;4.27;;;;;;;;;;5001794;28;37311;-77
2021/04/10 12:58:47;;;;;;;14.53;4.37;;;;;;;;;;5003693;28;40994;-77
2021/04/10 13:01:14;;;;;;;11.50;3.60;;;;;;;;;;5005003;28;38448;-77
2021/04/10 13:03:41;;;;;;;8.80;3.93;;;;;;;;;;4988101;28;39012;-77
2021/04/10 13:06:07;;;;;;;9.30;3.67;;;;;;;;;;4987266;28;38074;-77
2021/04/10 13:08:34;;;;;;;10.00;4.47;;;;;;;;;;4996447;28;39174;-77
2021/04/10 13:11:00;;;;;;;11.70;3.63;;;;;;;;;;5003073;28;38854;-77
2021/04/10 13:13:27;;;;;;;11.00;4.67;;;;;;;;;;5002987;28;38851;-77
2021/04/10 13:15:53;;;;;;;10.00;4.10;;;;;;;;;;5003919;28;37294;-77
2021/04/10 13:18:19;;;;;;;9.70;3.50;;;;;;;;;;4987779;28;38729;-77
2021/04/10 13:20:46;;;;;;;11.73;3.83;;;;;;;;;;4984330;28;37206;-77
2021/04/10 13:23:12;;;;;;;8.57;4.07;;;;;;;;;;4968554;28;39165;-77
2021/04/10 13:25:39;;;;;;;12.40;4.80;;;;;;;;;;4978541;28;39474;-77
2021/04/10 13:28:05;;;;;;;15.57;4.43;;;;;;;;;;5003531;28;39467;-78
2021/04/10 13:30:32;;;;;;;15.53;4.00;;;;;;;;;;4987708;28;38628;-77
2021/04/10 13:32:58;;;;;;;16.53;4.10;;;;;;;;;;4987606;28;38245;-77
2021/04/10 13:35:26;;;;;;;11.70;3.20;;;;;;;;;;5006850;28;37488;-76
2021/04/10 13:37:52;;;;;;;9.57;3.30;;;;;;;;;;5009624;28;39375;-77
2021/04/10 13:40:18;;;;;;;14.43;4.10;;;;;;;;;;4988059;28;38736;-77
2021/04/10 13:42:45;;;;;;;12.80;3.93;;;;;;;;;;5003018;28;38820;-77
2021/04/10 13:45:12;;;;;;;8.13;3.33;;;;;;;;;;5000506;28;36855;-77
2021/04/10 13:47:38;;;;;;;10.60;3.53;;;;;;;;;;4986929;28;39191;-77
2021/04/10 13:50:04;;;;;;;15.27;4.13;;;;;;;;;;4987056;28;38117;-77
2021/04/10 13:52:31;;;;;;;10.33;4.60;;;;;;;;;;4986056;28;39350;-77
2021/04/10 13:54:57;;;;;;;16.30;4.60;;;;;;;;;;5002669;28;38608;-77
2021/04/10 13:57:24;;;;;;;15.83;3.97;;;;;;;;;;4986990;28;39083;-78
2021/04/10 13:59:50;;;;;;;9.60;3.73;;;;;;;;;;5002044;28;39200;-77
2021/04/10 14:02:17;;;;;;;14.73;4.13;;;;;;;;;;5002350;28;38614;-77
2021/04/10 14:04:58;;;;;;;12.50;3.83;;;;;;;;;;4999126;28;37812;-77
2021/04/10 14:07:29;;;;;;;13.40;4.00;;;;;;;;;;4999114;28;40480;-77
2021/04/10 14:09:55;;;;;;;11.67;3.93;;;;;;;;;;4999955;28;38802;-77
2021/04/10 14:12:22;;;;;;;9.20;3.60;;;;;;;;;;4984540;28;37880;-78
2021/04/10 14:14:48;;;;;;;11.03;4.77;;;;;;;;;;4988243;28;38039;-78
2021/04/10 14:17:14;;;;;;;12.67;3.83;;;;;;;;;;4988243;28;39955;-78
2021/04/10 14:19:41;;;;;;;11.83;4.67;;;;;;;;;;5002913;28;38459;-78
2021/04/10 14:22:08;;;;;;;12.50;4.47;;;;;;;;;;5000605;28;39523;-77
2021/04/10 14:24:35;;;;;;;14.63;4.50;;;;;;;;;;4987649;28;37680;-78
2021/04/10 14:27:01;;;;;;;14.43;4.60;;;;;;;;;;4988333;28;38400;-78
2021/04/10 14:29:28;;;;;;;14.07;4.50;;;;;;;;;;4987418;28;49546;-78
2021/04/10 14:31:54;;;;;;;14.53;5.47;;;;;;;;;;4988154;28;37749;-78
2021/04/10 14:34:20;;;;;;;12.50;5.27;;;;;;;;;;5001332;28;35922;-78
2021/04/10 14:36:47;;;;;;;12.70;5.17;;;;;;;;;;5011503;28;38150;-77
2021/04/10 14:39:13;;;;;;;18.07;5.30;;;;;;;;;;4986851;28;40174;-78
2021/04/10 14:41:39;;;;;;;13.73;4.50;;;;;;;;;;5003028;28;38420;-78
2021/04/10 14:44:06;;;;;;;17.37;5.10;;;;;;;;;;4986373;28;36615;-78